createdAt,value
2022-08-26T00:00:07.931Z,21.61
2022-08-26T00:03:01.050Z,21.60
2022-08-26T00:05:28.991Z,21.56
2022-08-26T00:07:57.475Z,21.51
2022-08-26T00:10:25.890Z,21.51
2022-08-26T00:12:53.824Z,21.49
2022-08-26T00:15:23.029Z,21.49
2022-08-26T00:17:52.924Z,21.49
2022-08-26T00:20:25.995Z,21.49
2022-08-26T00:22:54.888Z,21.45
2022-08-26T00:25:23.679Z,21.40
2022-08-26T00:27:51.781Z,21.38
2022-08-26T00:30:24.256Z,21.32
2022-08-26T00:32:55.480Z,21.28
2022-08-26T00:35:25.582Z,21.23
2022-08-26T00:37:56.874Z,21.16
2022-08-26T00:40:32.319Z,21.13
2022-08-26T00:43:01.991Z,21.11
2022-08-26T00:45:50.256Z,21.09
2022-08-26T00:48:21.576Z,21.07
2022-08-26T00:51:15.968Z,21.05
2022-08-26T00:53:50.264Z,20.99
2022-08-26T00:56:25.067Z,20.98
2022-08-26T00:58:56.917Z,21.00
2022-08-26T01:01:26.459Z,20.97
2022-08-26T01:03:55.968Z,20.95
2022-08-26T01:06:25.118Z,20.92
2022-08-26T01:08:53.783Z,20.91
2022-08-26T01:11:22.726Z,20.91
2022-08-26T01:13:54.841Z,20.91
2022-08-26T01:16:25.752Z,20.91
2022-08-26T01:18:59.862Z,20.89
2022-08-26T01:22:05.592Z,20.85
2022-08-26T01:24:33.872Z,20.82
2022-08-26T01:27:05.307Z,20.78
2022-08-26T01:29:36.469Z,20.73
2022-08-26T01:32:08.527Z,20.70
2022-08-26T01:34:38.648Z,20.67
2022-08-26T01:37:15.849Z,20.66
2022-08-26T01:39:47.808Z,20.65
2022-08-26T01:42:19.187Z,20.67
2022-08-26T01:45:05.562Z,20.66
2022-08-26T01:47:37.137Z,20.65
2022-08-26T01:50:10.704Z,20.65
2022-08-26T01:52:43.281Z,20.65
2022-08-26T01:55:15.043Z,20.64
2022-08-26T01:58:04.863Z,20.64
2022-08-26T02:00:35.427Z,20.65
2022-08-26T02:03:21.549Z,20.64
2022-08-26T02:06:00.249Z,20.63
2022-08-26T02:08:41.409Z,20.61
2022-08-26T02:11:10.636Z,20.60
2022-08-26T02:13:52.118Z,20.59
2022-08-26T02:16:27.132Z,20.56
2022-08-26T02:18:56.049Z,20.52
2022-08-26T02:21:24.898Z,20.50
2022-08-26T02:23:56.213Z,20.47
2022-08-26T02:26:26.949Z,20.45
2022-08-26T02:29:26.918Z,20.41
2022-08-26T02:31:56.140Z,20.35
2022-08-26T02:34:31.010Z,20.33
2022-08-26T02:37:01.235Z,20.31
2022-08-26T02:39:31.309Z,20.26
2022-08-26T02:41:59.681Z,20.23
2022-08-26T02:44:27.820Z,20.16
2022-08-26T02:46:56.252Z,20.12
2022-08-26T02:49:25.318Z,20.11
2022-08-26T02:51:54.336Z,20.13
2022-08-26T02:54:22.230Z,20.14
2022-08-26T02:56:51.415Z,20.11
2022-08-26T02:59:19.327Z,20.11
2022-08-26T03:01:52.807Z,20.12
2022-08-26T03:04:25.961Z,20.15
2022-08-26T03:06:55.586Z,20.16
2022-08-26T03:09:24.013Z,20.11
2022-08-26T03:11:52.638Z,20.02
2022-08-26T03:14:21.041Z,19.97
2022-08-26T03:16:50.944Z,19.95
2022-08-26T03:19:19.002Z,19.93
2022-08-26T03:21:47.485Z,19.90
2022-08-26T03:24:17.028Z,19.87
2022-08-26T03:26:52.157Z,19.87
2022-08-26T03:29:40.340Z,19.91
2022-08-26T03:32:09.711Z,19.90
2022-08-26T03:34:38.705Z,19.86
2022-08-26T03:37:06.784Z,19.80
2022-08-26T03:39:35.025Z,19.75
2022-08-26T03:42:02.855Z,19.74
2022-08-26T03:44:31.600Z,19.76
2022-08-26T03:47:00.657Z,19.72
2022-08-26T03:49:31.654Z,19.70
2022-08-26T03:51:59.729Z,19.73
2022-08-26T03:54:27.554Z,19.72
2022-08-26T03:56:55.582Z,19.70
2022-08-26T03:59:25.146Z,19.67
2022-08-26T04:01:53.038Z,19.65
2022-08-26T04:04:22.590Z,19.66
2022-08-26T04:06:57.383Z,19.69
2022-08-26T04:09:27.640Z,19.76
2022-08-26T04:11:58.673Z,19.78
2022-08-26T04:14:28.259Z,19.78
2022-08-26T04:16:56.806Z,19.78
2022-08-26T04:19:26.031Z,19.80
2022-08-26T04:21:54.582Z,19.81
2022-08-26T04:24:24.929Z,19.81
2022-08-26T04:26:53.972Z,19.84
2022-08-26T04:29:24.609Z,19.88
2022-08-26T04:31:57.294Z,19.95
2022-08-26T04:34:28.447Z,19.94
2022-08-26T04:36:58.075Z,19.94
2022-08-26T04:39:27.654Z,19.97
2022-08-26T04:41:57.647Z,20.01
2022-08-26T04:44:29.816Z,20.08
2022-08-26T04:46:58.630Z,20.09
2022-08-26T04:49:27.706Z,20.12
2022-08-26T04:51:55.904Z,20.16
2022-08-26T04:54:23.963Z,20.21
2022-08-26T04:56:54.261Z,20.25
2022-08-26T04:59:22.088Z,20.30
2022-08-26T05:01:52.313Z,20.38
2022-08-26T05:04:21.202Z,20.44
2022-08-26T05:06:50.410Z,20.48
2022-08-26T05:09:18.858Z,20.56
2022-08-26T05:11:48.585Z,20.65
2022-08-26T05:14:23.271Z,20.74
2022-08-26T05:16:52.368Z,20.80
2022-08-26T05:19:21.183Z,20.86
2022-08-26T05:21:49.738Z,20.95
2022-08-26T05:24:18.361Z,21.07
2022-08-26T05:26:47.295Z,21.20
2022-08-26T05:29:16.775Z,21.31
2022-08-26T05:31:45.023Z,21.41
2022-08-26T05:34:13.135Z,21.50
2022-08-26T05:36:41.436Z,21.57
2022-08-26T05:39:10.509Z,21.64
2022-08-26T05:41:41.147Z,21.73
2022-08-26T05:44:11.419Z,21.83
2022-08-26T05:46:41.600Z,21.93
2022-08-26T05:49:10.179Z,22.04
2022-08-26T05:51:45.151Z,22.14
2022-08-26T05:54:14.236Z,22.20
2022-08-26T05:56:53.004Z,22.27
2022-08-26T05:59:23.916Z,22.32
2022-08-26T06:01:55.192Z,22.40
2022-08-26T06:04:26.921Z,22.45
2022-08-26T06:06:57.025Z,22.46
2022-08-26T06:09:26.738Z,22.49
2022-08-26T06:11:56.038Z,22.54
2022-08-26T06:14:24.017Z,22.60
2022-08-26T06:16:51.976Z,22.65
2022-08-26T06:19:22.111Z,22.73
2022-08-26T06:21:51.367Z,22.78
2022-08-26T06:24:41.264Z,22.87
2022-08-26T06:27:13.779Z,22.99
2022-08-26T06:29:43.011Z,23.12
2022-08-26T06:32:11.659Z,23.22
2022-08-26T06:34:39.495Z,23.32
2022-08-26T06:37:09.008Z,23.40
2022-08-26T06:39:41.239Z,23.48
2022-08-26T06:42:10.823Z,23.54
2022-08-26T06:44:39.025Z,23.59
2022-08-26T06:47:09.045Z,23.69
2022-08-26T06:49:37.281Z,23.77
2022-08-26T06:52:05.093Z,23.85
2022-08-26T06:54:32.893Z,23.92
2022-08-26T06:57:01.267Z,24.00
2022-08-26T06:59:31.305Z,24.08
2022-08-26T07:01:59.372Z,24.17
2022-08-26T07:04:28.123Z,24.27
2022-08-26T07:06:56.836Z,24.35
2022-08-26T07:09:30.394Z,24.44
2022-08-26T07:11:59.268Z,24.54
2022-08-26T07:14:27.054Z,24.65
2022-08-26T07:16:54.837Z,24.76
2022-08-26T07:19:30.195Z,24.88
2022-08-26T07:22:03.499Z,25.00
2022-08-26T07:24:35.053Z,25.10
2022-08-26T07:27:05.915Z,25.20
2022-08-26T07:29:36.075Z,25.30
2022-08-26T07:32:04.252Z,25.40
2022-08-26T07:34:33.732Z,25.48
2022-08-26T07:37:01.941Z,25.55
2022-08-26T07:39:31.426Z,25.67
2022-08-26T07:42:07.753Z,25.77
2022-08-26T07:44:37.253Z,25.86
2022-08-26T07:47:10.453Z,25.96
2022-08-26T07:49:56.731Z,26.14
2022-08-26T07:52:27.486Z,26.27
2022-08-26T07:54:58.267Z,26.40
2022-08-26T07:57:27.806Z,26.62
2022-08-26T07:59:56.294Z,26.78
2022-08-26T08:02:25.726Z,26.84
2022-08-26T08:04:54.847Z,26.92
2022-08-26T08:07:38.296Z,27.01
2022-08-26T08:10:11.320Z,27.07
2022-08-26T08:12:40.705Z,27.16
2022-08-26T08:15:13.347Z,27.25
2022-08-26T08:17:43.528Z,27.39
2022-08-26T08:20:13.651Z,27.56
2022-08-26T08:22:43.276Z,27.69
2022-08-26T08:25:12.125Z,27.81
2022-08-26T08:27:42.934Z,27.94
2022-08-26T08:30:13.901Z,28.09
2022-08-26T08:32:45.739Z,28.25
2022-08-26T08:35:18.428Z,28.31
2022-08-26T08:37:46.706Z,28.42
2022-08-26T08:40:18.798Z,28.58
2022-08-26T08:43:07.156Z,28.76
2022-08-26T08:45:38.414Z,28.89
2022-08-26T08:48:16.282Z,28.98
2022-08-26T08:50:49.320Z,29.07
2022-08-26T08:53:30.756Z,29.18
2022-08-26T08:56:23.880Z,29.45
2022-08-26T08:59:07.358Z,29.75
2022-08-26T09:01:52.465Z,29.93
2022-08-26T09:05:04.473Z,30.04
2022-08-26T09:07:50.508Z,30.20
2022-08-26T09:10:21.646Z,30.45
2022-08-26T09:12:52.366Z,30.76
2022-08-26T09:15:30.188Z,31.19
2022-08-26T09:18:27.012Z,31.69
2022-08-26T09:21:00.220Z,32.11
2022-08-26T09:23:28.201Z,32.59
2022-08-26T09:26:03.675Z,33.50
2022-08-26T09:28:32.515Z,34.27
2022-08-26T09:31:39.224Z,34.47
2022-08-26T09:34:22.596Z,35.47
2022-08-26T09:36:51.775Z,36.26
2022-08-26T09:39:28.371Z,36.52
2022-08-26T09:42:23.050Z,36.31
2022-08-26T09:45:04.073Z,35.90
2022-08-26T09:47:37.026Z,36.05
2022-08-26T09:50:28.953Z,36.05
2022-08-26T09:53:17.242Z,35.74
2022-08-26T09:55:52.381Z,35.17
2022-08-26T09:58:43.487Z,34.85
2022-08-26T10:01:36.174Z,34.59
2022-08-26T10:04:10.395Z,34.22
2022-08-26T10:06:54.954Z,34.17
2022-08-26T10:09:25.806Z,34.32
2022-08-26T10:11:57.197Z,34.12
2022-08-26T10:14:33.547Z,34.23
2022-08-26T10:17:22.234Z,34.09
2022-08-26T10:19:59.881Z,34.19
2022-08-26T10:22:37.208Z,34.96
2022-08-26T10:25:12.073Z,35.40
2022-08-26T10:27:53.441Z,35.33
2022-08-26T10:30:24.605Z,35.63
2022-08-26T10:33:00.925Z,35.53
2022-08-26T10:35:30.923Z,35.27
2022-08-26T10:38:04.735Z,35.24
2022-08-26T10:41:10.671Z,35.15
2022-08-26T10:43:55.987Z,34.60
2022-08-26T10:46:28.587Z,35.33
2022-08-26T10:49:03.329Z,36.82
2022-08-26T10:51:42.327Z,37.38
2022-08-26T10:54:22.155Z,37.60
2022-08-26T10:57:17.557Z,37.30
2022-08-26T11:00:30.294Z,37.03
2022-08-26T11:03:31.642Z,36.78
2022-08-26T11:06:18.443Z,36.43
2022-08-26T11:09:32.487Z,36.09
2022-08-26T11:12:05.134Z,35.50
2022-08-26T11:14:42.010Z,35.01
2022-08-26T11:17:46.785Z,34.70
2022-08-26T11:20:23.820Z,34.45
2022-08-26T11:22:54.510Z,34.39
2022-08-26T11:25:29.755Z,34.25
2022-08-26T11:28:00.497Z,33.97
2022-08-26T11:30:38.942Z,33.70
2022-08-26T11:33:08.601Z,33.48
2022-08-26T11:35:37.429Z,33.36
2022-08-26T11:38:22.864Z,33.18
2022-08-26T11:41:08.951Z,32.92
2022-08-26T11:43:40.042Z,32.87
2022-08-26T11:46:11.683Z,32.75
2022-08-26T11:48:42.622Z,32.55
2022-08-26T11:51:24.901Z,32.36
2022-08-26T11:54:12.078Z,32.23
2022-08-26T11:56:42.402Z,32.08
2022-08-26T11:59:15.640Z,31.92
2022-08-26T12:01:46.051Z,31.76
2022-08-26T12:04:28.704Z,31.65
2022-08-26T12:06:58.813Z,31.58
2022-08-26T12:09:30.499Z,31.49
2022-08-26T12:12:18.030Z,31.37
2022-08-26T12:14:45.827Z,31.30
2022-08-26T12:17:19.810Z,31.31
2022-08-26T12:19:50.505Z,31.26
2022-08-26T12:22:27.076Z,31.18
2022-08-26T12:25:00.053Z,31.06
2022-08-26T12:27:32.606Z,31.04
2022-08-26T12:30:14.338Z,31.08
2022-08-26T12:33:21.933Z,31.13
2022-08-26T12:35:56.228Z,31.10
2022-08-26T12:38:26.882Z,31.07
2022-08-26T12:40:57.076Z,31.14
2022-08-26T12:43:46.062Z,31.21
2022-08-26T12:46:24.518Z,31.21
2022-08-26T12:48:52.648Z,31.23
2022-08-26T12:51:25.329Z,31.22
2022-08-26T12:53:54.429Z,31.24
2022-08-26T12:56:27.942Z,31.30
2022-08-26T12:59:28.240Z,31.34
2022-08-26T13:01:56.309Z,31.38
2022-08-26T13:04:38.109Z,31.37
2022-08-26T13:07:14.930Z,31.37
2022-08-26T13:09:43.115Z,31.39
2022-08-26T13:12:12.973Z,31.42
2022-08-26T13:14:41.258Z,31.43
2022-08-26T13:17:09.337Z,31.42
2022-08-26T13:19:37.404Z,31.41
2022-08-26T13:22:06.400Z,31.38
2022-08-26T13:24:38.235Z,31.40
2022-08-26T13:27:09.764Z,31.44
2022-08-26T13:29:38.303Z,31.46
2022-08-26T13:32:08.120Z,31.46
2022-08-26T13:34:37.627Z,31.52
2022-08-26T13:37:06.831Z,31.51
2022-08-26T13:39:35.005Z,31.50
2022-08-26T13:42:03.088Z,31.51
2022-08-26T13:44:31.055Z,31.48
2022-08-26T13:46:59.243Z,31.42
2022-08-26T13:49:27.412Z,31.31
2022-08-26T13:51:55.385Z,31.19
2022-08-26T13:54:23.460Z,31.06
2022-08-26T13:56:51.944Z,30.99
2022-08-26T13:59:19.921Z,30.95
2022-08-26T14:01:48.302Z,30.92
2022-08-26T14:04:16.274Z,30.87
2022-08-26T14:06:51.619Z,30.88
2022-08-26T14:09:19.696Z,30.95
2022-08-26T14:11:54.646Z,31.01
2022-08-26T14:14:23.932Z,31.01
2022-08-26T14:16:59.394Z,31.07
2022-08-26T14:19:30.338Z,31.11
2022-08-26T14:22:01.098Z,31.11
2022-08-26T14:24:29.738Z,31.11
2022-08-26T14:26:57.813Z,31.10
2022-08-26T14:29:26.505Z,31.11
2022-08-26T14:31:57.189Z,31.13
2022-08-26T14:34:25.827Z,31.13
2022-08-26T14:36:53.903Z,31.14
2022-08-26T14:39:22.539Z,31.09
2022-08-26T14:41:54.981Z,31.05
2022-08-26T14:44:29.639Z,31.04
2022-08-26T14:47:01.195Z,31.08
2022-08-26T14:49:31.371Z,31.06
2022-08-26T14:51:59.753Z,31.03
2022-08-26T14:54:29.518Z,31.02
2022-08-26T14:57:04.024Z,30.99
2022-08-26T14:59:35.909Z,30.93
2022-08-26T15:02:05.458Z,30.89
2022-08-26T15:04:33.742Z,30.89
2022-08-26T15:07:02.697Z,30.88
2022-08-26T15:09:33.321Z,30.83
2022-08-26T15:12:01.963Z,30.78
2022-08-26T15:14:32.952Z,30.78
2022-08-26T15:17:01.288Z,30.78
2022-08-26T15:19:29.360Z,30.77
2022-08-26T15:21:57.335Z,30.78
2022-08-26T15:24:28.970Z,30.79
2022-08-26T15:26:57.785Z,30.80
2022-08-26T15:29:26.063Z,30.78
2022-08-26T15:31:55.330Z,30.70
2022-08-26T15:34:25.597Z,30.61
2022-08-26T15:36:54.387Z,30.59
2022-08-26T15:39:22.358Z,30.54
2022-08-26T15:41:51.252Z,30.53
2022-08-26T15:44:19.944Z,30.54
2022-08-26T15:46:49.524Z,30.56
2022-08-26T15:49:18.832Z,30.57
2022-08-26T15:51:50.565Z,30.59
2022-08-26T15:54:21.707Z,30.62
2022-08-26T15:56:52.564Z,30.62
2022-08-26T15:59:22.526Z,30.58
2022-08-26T16:01:51.801Z,30.56
2022-08-26T16:04:21.023Z,30.56
2022-08-26T16:06:51.600Z,30.53
2022-08-26T16:09:23.962Z,30.50
2022-08-26T16:11:56.507Z,30.47
2022-08-26T16:14:25.298Z,30.42
2022-08-26T16:16:53.623Z,30.41
2022-08-26T16:19:22.417Z,30.43
2022-08-26T16:21:51.676Z,30.43
2022-08-26T16:24:24.767Z,30.35
2022-08-26T16:26:55.502Z,30.27
2022-08-26T16:29:24.721Z,30.23
2022-08-26T16:31:54.881Z,30.15
2022-08-26T16:34:23.222Z,30.07
2022-08-26T16:36:51.285Z,30.00
2022-08-26T16:39:19.360Z,29.93
2022-08-26T16:41:47.334Z,29.84
2022-08-26T16:44:15.411Z,29.80
2022-08-26T16:46:43.528Z,29.75
2022-08-26T16:49:11.560Z,29.66
2022-08-26T16:51:39.633Z,29.61
2022-08-26T16:54:09.001Z,29.55
2022-08-26T16:56:37.628Z,29.50
2022-08-26T16:59:07.775Z,29.48
2022-08-26T17:01:35.819Z,29.43
2022-08-26T17:04:04.361Z,29.36
2022-08-26T17:06:32.391Z,29.29
2022-08-26T17:09:00.306Z,29.22
2022-08-26T17:11:28.439Z,29.17
2022-08-26T17:13:57.229Z,29.13
2022-08-26T17:16:27.070Z,29.09
2022-08-26T17:18:57.887Z,29.02
2022-08-26T17:21:27.594Z,28.97
2022-08-26T17:23:56.502Z,28.89
2022-08-26T17:26:24.380Z,28.85
2022-08-26T17:28:52.830Z,28.84
2022-08-26T17:31:22.099Z,28.79
2022-08-26T17:33:53.532Z,28.73
2022-08-26T17:36:28.127Z,28.68
2022-08-26T17:38:57.709Z,28.61
2022-08-26T17:41:27.022Z,28.55
2022-08-26T17:43:54.954Z,28.44
2022-08-26T17:46:23.440Z,28.38
2022-08-26T17:48:51.652Z,28.33
2022-08-26T17:51:20.798Z,28.20
2022-08-26T17:53:49.141Z,28.11
2022-08-26T17:56:20.247Z,28.05
2022-08-26T17:58:51.211Z,27.96
2022-08-26T18:01:26.299Z,27.90
2022-08-26T18:04:00.187Z,27.86
2022-08-26T18:06:30.736Z,27.81
2022-08-26T18:09:00.184Z,27.77
2022-08-26T18:11:28.440Z,27.68
2022-08-26T18:13:56.427Z,27.58
2022-08-26T18:16:24.876Z,27.49
2022-08-26T18:18:53.780Z,27.43
2022-08-26T18:21:25.274Z,27.36
2022-08-26T18:23:54.224Z,27.25
2022-08-26T18:26:33.449Z,27.16
2022-08-26T18:29:01.974Z,27.07
2022-08-26T18:31:30.733Z,27.00
2022-08-26T18:34:00.868Z,26.94
2022-08-26T18:36:35.836Z,26.86
2022-08-26T18:39:05.649Z,26.78
2022-08-26T18:41:39.643Z,26.68
2022-08-26T18:44:12.950Z,26.59
2022-08-26T18:46:43.383Z,26.52
2022-08-26T18:49:16.197Z,26.44
2022-08-26T18:51:45.448Z,26.37
2022-08-26T18:54:13.841Z,26.32
2022-08-26T18:56:42.529Z,26.27
2022-08-26T18:59:11.572Z,26.22
2022-08-26T19:01:42.054Z,26.18
2022-08-26T19:04:14.141Z,26.12
2022-08-26T19:06:47.423Z,26.07
2022-08-26T19:09:17.890Z,25.97
2022-08-26T19:11:47.005Z,25.91
2022-08-26T19:14:18.242Z,25.87
2022-08-26T19:16:49.619Z,25.84
2022-08-26T19:19:18.282Z,25.81
2022-08-26T19:21:47.174Z,25.77
2022-08-26T19:24:17.730Z,25.73
2022-08-26T19:26:57.887Z,25.67
2022-08-26T19:29:29.549Z,25.62
2022-08-26T19:31:58.766Z,25.59
2022-08-26T19:34:26.621Z,25.56
2022-08-26T19:36:56.976Z,25.51
2022-08-26T19:39:26.430Z,25.46
2022-08-26T19:41:54.600Z,25.43
2022-08-26T19:44:41.836Z,25.40
2022-08-26T19:47:11.223Z,25.37
2022-08-26T19:49:39.424Z,25.32
2022-08-26T19:52:08.084Z,25.28
2022-08-26T19:54:36.261Z,25.24
2022-08-26T19:57:05.018Z,25.17
2022-08-26T19:59:33.196Z,25.11
2022-08-26T20:02:01.981Z,25.06
2022-08-26T20:04:31.510Z,24.99
2022-08-26T20:07:00.916Z,24.94
2022-08-26T20:09:31.272Z,24.89
2022-08-26T20:11:59.449Z,24.84
2022-08-26T20:14:28.545Z,24.78
2022-08-26T20:16:56.912Z,24.74
2022-08-26T20:19:43.935Z,24.69
2022-08-26T20:22:12.940Z,24.62
2022-08-26T20:24:41.223Z,24.58
2022-08-26T20:27:09.910Z,24.54
2022-08-26T20:29:39.011Z,24.50
2022-08-26T20:32:08.104Z,24.46
2022-08-26T20:34:37.104Z,24.40
2022-08-26T20:37:05.386Z,24.33
2022-08-26T20:39:33.461Z,24.30
2022-08-26T20:42:01.331Z,24.27
2022-08-26T20:44:29.406Z,24.23
2022-08-26T20:46:59.325Z,24.21
2022-08-26T20:49:28.833Z,24.19
2022-08-26T20:51:56.806Z,24.15
2022-08-26T20:54:28.521Z,24.09
2022-08-26T20:56:58.532Z,24.02
2022-08-26T20:59:27.176Z,23.97
2022-08-26T21:01:55.352Z,23.92
2022-08-26T21:04:25.259Z,23.87
2022-08-26T21:06:54.640Z,23.85
2022-08-26T21:09:24.437Z,23.84
2022-08-26T21:11:54.443Z,23.80
2022-08-26T21:14:25.798Z,23.74
2022-08-26T21:16:54.591Z,23.67
2022-08-26T21:19:22.782Z,23.63
2022-08-26T21:21:51.012Z,23.60
2022-08-26T21:24:19.493Z,23.61
2022-08-26T21:26:47.671Z,23.62
2022-08-26T21:29:15.701Z,23.63
2022-08-26T21:31:46.608Z,23.66
2022-08-26T21:34:18.063Z,23.68
2022-08-26T21:36:47.907Z,23.68
2022-08-26T21:39:17.002Z,23.70
2022-08-26T21:41:47.408Z,23.70
2022-08-26T21:44:16.925Z,23.70
2022-08-26T21:46:46.343Z,23.71
2022-08-26T21:49:18.466Z,23.73
2022-08-26T21:51:48.492Z,23.73
2022-08-26T21:54:18.271Z,23.72
2022-08-26T21:56:47.811Z,23.72
2022-08-26T21:59:18.955Z,23.72
2022-08-26T22:01:47.758Z,23.74
2022-08-26T22:04:16.436Z,23.71
2022-08-26T22:06:47.708Z,23.70
2022-08-26T22:09:19.090Z,23.71
2022-08-26T22:11:47.623Z,23.74
2022-08-26T22:14:17.391Z,23.74
2022-08-26T22:16:50.162Z,23.73
2022-08-26T22:19:20.446Z,23.71
2022-08-26T22:21:53.583Z,23.67
2022-08-26T22:24:23.756Z,23.61
2022-08-26T22:26:52.859Z,23.58
2022-08-26T22:29:21.344Z,23.51
2022-08-26T22:31:49.454Z,23.48
2022-08-26T22:34:19.748Z,23.50
2022-08-26T22:36:49.359Z,23.50
2022-08-26T22:39:21.225Z,23.51
2022-08-26T22:41:50.221Z,23.51
2022-08-26T22:44:19.522Z,23.52
2022-08-26T22:46:48.621Z,23.54
2022-08-26T22:49:17.620Z,23.51
2022-08-26T22:51:46.920Z,23.47
2022-08-26T22:54:15.918Z,23.42
2022-08-26T22:56:45.121Z,23.43
2022-08-26T22:59:13.502Z,23.44
2022-08-26T23:01:43.418Z,23.42
2022-08-26T23:04:12.108Z,23.40
2022-08-26T23:06:43.334Z,23.37
2022-08-26T23:09:18.720Z,23.37
2022-08-26T23:11:48.644Z,23.32
2022-08-26T23:14:18.742Z,23.28
2022-08-26T23:16:47.886Z,23.28
2022-08-26T23:19:18.830Z,23.30
2022-08-26T23:21:47.369Z,23.30
2022-08-26T23:24:17.403Z,23.27
2022-08-26T23:26:45.768Z,23.25
2022-08-26T23:29:15.751Z,23.21
2022-08-26T23:31:44.657Z,23.18
2022-08-26T23:34:43.022Z,23.13
2022-08-26T23:37:11.027Z,23.06
2022-08-26T23:39:38.893Z,23.02
2022-08-26T23:42:08.323Z,23.03
2022-08-26T23:44:36.988Z,23.02
2022-08-26T23:47:06.303Z,22.96
2022-08-26T23:49:34.572Z,22.92
2022-08-26T23:52:22.555Z,22.91
2022-08-26T23:54:51.296Z,22.85
2022-08-26T23:57:21.248Z,22.86
2022-08-26T23:59:49.698Z,22.79
